Aviation Digital Data Service (ADDS)

Output produced by METARs form (1753 UTC 01 March 2017)
found at http://aviationweather.gov/adds/metars/
 
KCRG 011140Z 0112/0212 20006KT P6SM FEW050 BKN250 
     FM011400 20010KT P6SM SCT020 
     FM011600 20012G20KT P6SM SCT050 BKN250 
     FM012300 18011KT P6SM SCT250 
     FM020600 22006KT P6SM SCT025 BKN100 
     FM021000 24006KT P6SM SCT008 BKN020